»·PEaware :: SWA3802 KLAS-KSNA

SWA3802 :: KLAS-KSNA

FLIGHT INFORMATION

Flight Status: Arrived
Operator:
Southwest Airlines
More flights by this operator :: More flights under this callsign
Pilot: Shane F. (23676)
Aircraft: BOEING 737-800
(B738)
More flights by this aircraft type
Origin: KLAS McCarran Intl
United States
Destination: KSNA John Wayne-Orange Co
United States
More flights between these airports :: More routes between these airports
Route: BOACH8 WHIGG FEYLA DSNEE4
File this flight plan on PilotEdge
Remarks:
Altitude:
(Current/Filed)
28,000ft
Speed:
(Current/Filed)
412kts
Departed: 09-Jan-21 09:34 PM
Arrived: 09-Jan-21 10:15 PM
Distance/Time
Traveled:
197nm/0:41
Distance/Time
To Go:
Arrived

Flight Plot

Page will automatically refresh every two minutes.

Flight plan parsing failed; only flown route is shown


Map Options




Map Legend


Flown Route
Filed Route
Departure Airport
Arrival Airport
Navaid (VOR, NDB)
Fix

Horizontal Profiles

Position Reports

Time Latitude Longitude Heading Altitude Ground
Speed
09-Jan-21 21:13 36.082417 -115.150563 319 2108ft 0kts
09-Jan-21 21:14 36.082417 -115.150563 319 2108ft 0kts
09-Jan-21 21:15 36.082417 -115.150563 319 2108ft 0kts
09-Jan-21 21:16 36.082417 -115.150563 319 2108ft 0kts
09-Jan-21 21:17 36.082417 -115.150563 319 2108ft 0kts
09-Jan-21 21:18 36.082417 -115.150563 319 2108ft 0kts
09-Jan-21 21:19 36.082417 -115.150563 319 2108ft 0kts
09-Jan-21 21:20 36.082417 -115.150563 319 2108ft 0kts
09-Jan-21 21:21 36.082417 -115.150563 319 2108ft 0kts
09-Jan-21 21:22 36.082417 -115.150563 319 2108ft 0kts
09-Jan-21 21:23 36.082417 -115.150563 319 2108ft 0kts
09-Jan-21 21:24 36.082115 -115.150298 345 2107ft 2kts
09-Jan-21 21:25 36.081635 -115.150450 48 2109ft 1kts
09-Jan-21 21:26 36.081612 -115.150480 45 2109ft 0kts
09-Jan-21 21:27 36.081770 -115.149836 121 2106ft 10kts
09-Jan-21 21:28 36.078694 -115.147875 109 2105ft 0kts
09-Jan-21 21:29 36.078424 -115.146012 91 2101ft 19kts
09-Jan-21 21:30 36.078266 -115.137133 89 2073ft 31kts
09-Jan-21 21:31 36.078275 -115.125959 89 2043ft 32kts
09-Jan-21 21:32 36.076436 -115.121723 265 2041ft 7kts
09-Jan-21 21:33 36.076327 -115.155237 269 2524ft 170kts
09-Jan-21 21:34 36.072327 -115.220099 258 4383ft 223kts
09-Jan-21 21:35 36.024386 -115.276826 200 6903ft 273kts
09-Jan-21 21:36 35.950161 -115.304336 186 10208ft 288kts
09-Jan-21 21:37 35.862095 -115.314178 181 12418ft 336kts
09-Jan-21 21:38 35.766487 -115.304803 174 15412ft 352kts
09-Jan-21 21:39 35.669666 -115.319686 210 18188ft 367kts
09-Jan-21 21:40 35.594515 -115.407521 227 20708ft 381kts
09-Jan-21 21:41 35.521653 -115.505459 227 22974ft 395kts
09-Jan-21 21:42 35.446627 -115.606452 228 24997ft 407kts
09-Jan-21 21:43 35.368856 -115.711215 227 26825ft 419kts
09-Jan-21 21:44 35.289247 -115.818201 227 27964ft 432kts
09-Jan-21 21:45 35.207515 -115.926899 225 27964ft 431kts
09-Jan-21 21:46 35.123908 -116.031716 225 28260ft 434kts
09-Jan-21 21:47 35.039662 -116.137567 225 28265ft 433kts
09-Jan-21 21:48 34.956151 -116.242394 225 28274ft 413kts
09-Jan-21 21:49 34.878729 -116.339296 226 28286ft 401kts
09-Jan-21 21:50 34.802202 -116.436483 226 27488ft 396kts
09-Jan-21 21:51 34.726387 -116.532923 226 25347ft 382kts
09-Jan-21 21:52 34.648401 -116.618861 219 23330ft 385kts
09-Jan-21 21:53 34.566204 -116.699218 218 21332ft 369kts
09-Jan-21 21:54 34.489459 -116.776832 223 19541ft 353kts
09-Jan-21 21:55 34.419380 -116.858134 223 17664ft 342kts
09-Jan-21 21:56 34.352347 -116.935873 223 16118ft 326kts
09-Jan-21 21:57 34.287523 -117.010497 223 14485ft 317kts
09-Jan-21 21:58 34.214493 -117.071638 210 13813ft 316kts
09-Jan-21 21:59 34.137496 -117.120920 203 13004ft 316kts
09-Jan-21 22:00 34.057604 -117.163510 204 12998ft 315kts
09-Jan-21 22:01 33.984896 -117.213950 224 11725ft 307kts
09-Jan-21 22:02 33.928345 -117.291487 229 10465ft 300kts
09-Jan-21 22:03 33.875765 -117.366004 230 9283ft 281kts
09-Jan-21 22:04 33.827867 -117.437854 245 8154ft 272kts
09-Jan-21 22:05 33.826507 -117.527448 278 6842ft 271kts
09-Jan-21 22:06 33.833267 -117.611719 270 5687ft 219kts
09-Jan-21 22:07 33.833052 -117.672978 270 4716ft 169kts
09-Jan-21 22:08 33.833002 -117.729564 271 3864ft 167kts
09-Jan-21 22:10 33.815588 -117.778772 216 2976ft 166kts
09-Jan-21 22:11 33.777313 -117.804403 207 2129ft 146kts
09-Jan-21 22:12 33.741471 -117.827117 208 1357ft 143kts
09-Jan-21 22:13 33.706667 -117.849189 207 612ft 139kts
09-Jan-21 22:14 33.673916 -117.869955 207 67ft 90kts
09-Jan-21 22:15 33.667575 -117.872777 88 67ft 0kts
09-Jan-21 22:16 33.668601 -117.871402 38 67ft 8kts
09-Jan-21 22:17 33.671018 -117.869009 39 67ft 16kts
09-Jan-21 22:18 33.675111 -117.865833 28 67ft 16kts
09-Jan-21 22:19 33.676404 -117.864071 120 67ft 0kts
09-Jan-21 22:20 33.676455 -117.864126 121 67ft 0kts
09-Jan-21 22:21 33.676455 -117.864126 121 67ft 0kts
09-Jan-21 22:22 33.676455 -117.864126 121 67ft 0kts

Navigation Log

Ident Type
Flight plan parsing failed, navigation log unavailable